createdAt,value
2022-10-03T00:01:20.508Z,75.10
2022-10-03T00:04:00.027Z,75.10
2022-10-03T00:06:47.679Z,75.00
2022-10-03T00:09:35.541Z,75.10
2022-10-03T00:12:20.690Z,75.10
2022-10-03T00:14:59.409Z,74.70
2022-10-03T00:17:40.606Z,75.60
2022-10-03T00:20:33.043Z,74.70
2022-10-03T00:23:11.431Z,75.10
2022-10-03T00:25:47.841Z,75.00
2022-10-03T00:28:29.751Z,75.20
2022-10-03T00:31:15.382Z,75.10
2022-10-03T00:34:02.855Z,75.10
2022-10-03T00:36:44.419Z,75.00
2022-10-03T00:39:40.852Z,74.60
2022-10-03T00:43:04.365Z,74.40
2022-10-03T00:45:57.977Z,74.10
2022-10-03T00:48:59.903Z,74.30
2022-10-03T00:51:44.275Z,74.10
2022-10-03T00:54:38.307Z,74.20
2022-10-03T00:57:36.342Z,74.00
2022-10-03T01:00:20.639Z,74.20
2022-10-03T01:03:16.089Z,74.10
2022-10-03T01:06:03.685Z,74.20
2022-10-03T01:08:59.599Z,74.00
2022-10-03T01:11:43.753Z,74.10
2022-10-03T01:14:26.157Z,74.00
2022-10-03T01:17:06.905Z,73.90
2022-10-03T01:20:05.890Z,74.00
2022-10-03T01:23:08.622Z,73.90
2022-10-03T01:25:43.525Z,73.90
2022-10-03T01:29:04.628Z,73.90
2022-10-03T01:31:45.471Z,74.10
2022-10-03T01:34:24.631Z,74.10
2022-10-03T01:37:07.530Z,74.00
2022-10-03T01:39:45.006Z,74.10
2022-10-03T01:42:20.674Z,73.80
2022-10-03T01:45:13.762Z,74.10
2022-10-03T01:47:51.510Z,73.70
2022-10-03T01:50:28.175Z,74.70
2022-10-03T01:53:04.645Z,73.40
2022-10-03T01:55:44.274Z,73.50
2022-10-03T01:58:21.930Z,73.50
2022-10-03T02:01:01.823Z,73.60
2022-10-03T02:03:37.965Z,73.50
2022-10-03T02:06:17.494Z,73.50
2022-10-03T02:08:54.765Z,73.50
2022-10-03T02:11:34.945Z,73.70
2022-10-03T02:14:20.006Z,73.70
2022-10-03T02:17:02.057Z,73.60
2022-10-03T02:19:39.467Z,73.50
2022-10-03T02:22:18.249Z,73.40
2022-10-03T02:24:55.407Z,73.40
2022-10-03T02:28:00.993Z,73.70
2022-10-03T02:30:38.603Z,73.50
2022-10-03T02:33:45.683Z,73.50
2022-10-03T02:36:38.449Z,73.20
2022-10-03T02:39:25.218Z,73.40
2022-10-03T02:42:33.522Z,73.60
2022-10-03T02:45:43.404Z,73.60
2022-10-03T02:48:54.855Z,73.50
2022-10-03T02:51:47.115Z,73.40
2022-10-03T02:54:46.793Z,73.30
2022-10-03T02:57:54.492Z,73.30
2022-10-03T03:00:25.391Z,73.10
2022-10-03T03:03:16.978Z,73.20
2022-10-03T03:06:20.642Z,73.30
2022-10-03T03:09:04.615Z,73.20
2022-10-03T03:12:15.442Z,72.90
2022-10-03T03:15:22.741Z,72.90
2022-10-03T03:17:59.662Z,72.90
2022-10-03T03:20:43.697Z,72.90
2022-10-03T03:23:46.885Z,73.00
2022-10-03T03:26:50.716Z,73.20
2022-10-03T03:29:31.895Z,73.10
2022-10-03T03:32:11.420Z,73.10
2022-10-03T03:34:49.382Z,73.10
2022-10-03T03:37:29.250Z,73.00
2022-10-03T03:40:16.110Z,73.00
2022-10-03T03:43:05.943Z,73.00
2022-10-03T03:45:48.485Z,73.00
2022-10-03T03:48:42.772Z,72.90
2022-10-03T03:51:24.683Z,72.80
2022-10-03T03:54:22.371Z,73.30
2022-10-03T03:57:02.951Z,72.80
2022-10-03T03:59:56.603Z,73.10
2022-10-03T04:02:39.499Z,73.00
2022-10-03T04:05:19.090Z,73.00
2022-10-03T04:08:12.017Z,73.10
2022-10-03T04:10:53.347Z,73.10
2022-10-03T04:13:36.977Z,73.20
2022-10-03T04:16:42.809Z,74.00
2022-10-03T04:19:19.223Z,73.40
2022-10-03T04:22:09.498Z,73.50
2022-10-03T04:25:01.411Z,73.20
2022-10-03T04:27:46.182Z,73.30
2022-10-03T04:30:17.648Z,73.40
2022-10-03T04:33:10.441Z,73.40
2022-10-03T04:36:21.811Z,73.30
2022-10-03T04:39:03.788Z,73.40
2022-10-03T04:41:43.627Z,73.50
2022-10-03T04:44:30.271Z,73.50
2022-10-03T04:47:05.121Z,73.50
2022-10-03T04:49:44.508Z,73.60
2022-10-03T04:52:22.233Z,73.40
2022-10-03T04:55:05.140Z,73.40
2022-10-03T04:57:44.064Z,73.50
2022-10-03T05:00:28.350Z,73.40
2022-10-03T05:03:06.732Z,73.40
2022-10-03T05:05:55.094Z,73.60
2022-10-03T05:08:41.091Z,73.60
2022-10-03T05:11:18.951Z,73.60
2022-10-03T05:14:03.346Z,73.60
2022-10-03T05:16:43.054Z,73.50
2022-10-03T05:19:47.845Z,73.50
2022-10-03T05:22:40.305Z,73.10
2022-10-03T05:25:34.023Z,73.40
2022-10-03T05:28:15.521Z,73.40
2022-10-03T05:30:53.413Z,73.10
2022-10-03T05:33:35.590Z,73.00
2022-10-03T05:36:16.402Z,73.10
2022-10-03T05:39:18.002Z,72.80
2022-10-03T05:42:17.794Z,72.80
2022-10-03T05:44:48.088Z,72.80
2022-10-03T05:47:41.639Z,72.40
2022-10-03T05:50:43.312Z,72.60
2022-10-03T05:53:44.257Z,72.30
2022-10-03T05:56:31.647Z,71.90
2022-10-03T05:59:30.743Z,71.60
2022-10-03T06:02:26.419Z,69.60
2022-10-03T06:05:29.339Z,69.20
2022-10-03T06:08:41.850Z,68.00
2022-10-03T06:11:45.828Z,67.10
2022-10-03T06:14:38.731Z,66.80
2022-10-03T06:17:31.261Z,66.70
2022-10-03T06:20:14.321Z,65.30
2022-10-03T06:23:15.075Z,64.60
2022-10-03T06:26:23.423Z,64.90
2022-10-03T06:29:26.200Z,65.40
2022-10-03T06:32:41.607Z,65.90
2022-10-03T06:35:35.540Z,66.50
2022-10-03T06:38:48.071Z,66.40
2022-10-03T06:41:55.775Z,66.70
2022-10-03T06:45:01.306Z,66.70
2022-10-03T06:47:44.751Z,66.10
2022-10-03T06:50:35.714Z,66.00
2022-10-03T06:53:48.303Z,66.30
2022-10-03T06:56:51.435Z,65.20
2022-10-03T06:59:51.722Z,64.80
2022-10-03T07:02:53.159Z,64.80
2022-10-03T07:05:54.099Z,65.00
2022-10-03T07:09:14.643Z,63.40
2022-10-03T07:12:19.414Z,63.40
2022-10-03T07:15:14.968Z,60.10
2022-10-03T07:18:10.519Z,59.60
2022-10-03T07:21:18.967Z,55.00
2022-10-03T07:24:14.530Z,53.30
2022-10-03T07:27:09.884Z,53.90
2022-10-03T07:29:47.315Z,51.30
2022-10-03T07:32:48.516Z,49.40
2022-10-03T07:35:55.688Z,46.80
2022-10-03T07:39:18.376Z,47.40
2022-10-03T07:42:14.076Z,48.30
2022-10-03T07:45:08.821Z,45.00
2022-10-03T07:48:09.239Z,38.00
2022-10-03T07:50:53.626Z,38.70
2022-10-03T07:53:46.035Z,34.80
2022-10-03T07:56:38.602Z,32.70
2022-10-03T07:59:35.283Z,35.30
2022-10-03T08:02:29.449Z,35.40
2022-10-03T08:05:20.845Z,34.50
2022-10-03T08:08:09.492Z,34.60
2022-10-03T08:11:08.708Z,32.60
2022-10-03T08:13:57.259Z,32.10
2022-10-03T08:16:49.418Z,34.60
2022-10-03T08:19:34.988Z,34.60
2022-10-03T08:22:14.260Z,34.10
2022-10-03T08:25:13.116Z,32.70
2022-10-03T08:28:03.279Z,30.30
2022-10-03T08:30:48.292Z,34.00
2022-10-03T08:33:39.009Z,32.90
2022-10-03T08:36:38.893Z,29.90
2022-10-03T08:39:34.903Z,29.30
2022-10-03T08:42:38.748Z,26.50
2022-10-03T08:45:47.018Z,27.10
2022-10-03T08:48:47.500Z,25.10
2022-10-03T08:51:47.892Z,27.70
2022-10-03T08:54:49.048Z,26.50
2022-10-03T08:57:57.514Z,25.70
2022-10-03T09:00:37.498Z,27.60
2022-10-03T09:03:40.704Z,25.50
2022-10-03T09:06:48.273Z,23.00
2022-10-03T09:10:03.826Z,20.70
2022-10-03T09:13:03.184Z,20.90
2022-10-03T09:16:23.034Z,17.70
2022-10-03T09:19:10.248Z,17.10
2022-10-03T09:22:06.377Z,12.90
2022-10-03T09:25:08.902Z,14.40
2022-10-03T09:27:55.115Z,12.90
2022-10-03T09:30:29.470Z,14.90
2022-10-03T09:33:19.653Z,12.60
2022-10-03T09:36:12.877Z,15.50
2022-10-03T09:39:09.477Z,14.40
2022-10-03T09:42:07.833Z,14.50
2022-10-03T09:45:01.013Z,16.50
2022-10-03T09:47:54.522Z,15.30
2022-10-03T09:51:04.218Z,21.00
2022-10-03T09:54:10.088Z,21.40
2022-10-03T09:57:11.461Z,17.90
2022-10-03T10:00:03.765Z,19.90
2022-10-03T10:03:03.420Z,21.90
2022-10-03T10:06:24.549Z,22.90
2022-10-03T10:09:26.930Z,19.10
2022-10-03T10:12:28.125Z,18.80
2022-10-03T10:15:16.340Z,21.50
2022-10-03T10:18:16.469Z,14.70
2022-10-03T10:21:29.588Z,15.80
2022-10-03T10:24:22.884Z,12.70
2022-10-03T10:27:22.610Z,13.90
2022-10-03T10:30:22.473Z,15.20
2022-10-03T10:33:28.521Z,12.60
2022-10-03T10:36:19.723Z,12.80
2022-10-03T10:39:25.705Z,10.20
2022-10-03T10:42:28.304Z,7.10
2022-10-03T10:45:41.861Z,6.00
2022-10-03T10:49:03.908Z,4.90
2022-10-03T10:52:03.641Z,4.00
2022-10-03T10:55:10.537Z,7.40
2022-10-03T10:58:12.988Z,5.00
2022-10-03T11:01:04.191Z,3.10
2022-10-03T11:04:15.796Z,1.10
2022-10-03T11:07:12.450Z,1.00
2022-10-03T11:10:31.103Z,1.00
2022-10-03T11:13:35.452Z,1.00
2022-10-03T11:16:48.816Z,1.00
2022-10-03T11:20:06.026Z,1.00
2022-10-03T11:23:07.303Z,1.00
2022-10-03T11:26:07.901Z,1.00
2022-10-03T11:29:07.898Z,1.00
2022-10-03T11:32:08.258Z,1.00
2022-10-03T11:35:21.235Z,1.00
2022-10-03T11:37:55.008Z,1.00
2022-10-03T11:40:38.149Z,1.00
2022-10-03T11:43:47.116Z,1.00
2022-10-03T11:46:31.791Z,1.00
2022-10-03T11:49:09.312Z,1.00
2022-10-03T11:51:48.242Z,1.00
2022-10-03T11:54:32.193Z,1.00
2022-10-03T11:57:10.993Z,1.00
2022-10-03T12:00:02.709Z,1.00
2022-10-03T12:03:07.160Z,1.00
2022-10-03T12:05:52.740Z,1.00
2022-10-03T12:08:43.507Z,1.00
2022-10-03T12:11:20.588Z,1.00
2022-10-03T12:14:11.471Z,1.00
2022-10-03T12:17:05.702Z,1.00
2022-10-03T12:19:41.312Z,1.00
2022-10-03T12:22:35.675Z,1.00
2022-10-03T12:25:19.365Z,1.00
2022-10-03T12:27:59.006Z,1.00
2022-10-03T12:30:32.873Z,1.00
2022-10-03T12:33:16.450Z,1.00
2022-10-03T12:35:52.735Z,1.00
2022-10-03T12:38:41.363Z,1.00
2022-10-03T12:41:24.275Z,1.00
2022-10-03T12:44:08.512Z,1.00
2022-10-03T12:46:48.001Z,1.00
2022-10-03T12:49:22.585Z,1.00
2022-10-03T12:52:00.309Z,1.00
2022-10-03T12:54:49.886Z,1.00
2022-10-03T12:57:52.695Z,1.00
2022-10-03T13:00:28.827Z,1.00
2022-10-03T13:03:26.045Z,1.00
2022-10-03T13:06:50.956Z,1.00
2022-10-03T13:09:28.454Z,1.00
2022-10-03T13:12:06.308Z,1.00
2022-10-03T13:15:06.685Z,1.00
2022-10-03T13:17:41.774Z,1.00
2022-10-03T13:20:20.045Z,1.00
2022-10-03T13:23:03.166Z,1.00
2022-10-03T13:25:41.726Z,1.00
2022-10-03T13:28:18.783Z,1.00
2022-10-03T13:30:53.719Z,1.00
2022-10-03T13:33:27.957Z,1.00
2022-10-03T13:36:05.510Z,1.00
2022-10-03T13:39:05.728Z,1.00
2022-10-03T13:41:48.718Z,1.00
2022-10-03T13:44:28.299Z,1.00
2022-10-03T13:47:05.627Z,1.00
2022-10-03T13:49:40.474Z,1.00
2022-10-03T13:52:21.715Z,1.00
2022-10-03T13:55:26.394Z,1.00
2022-10-03T13:58:26.195Z,1.00
2022-10-03T14:01:36.409Z,1.00
2022-10-03T14:04:38.507Z,1.00
2022-10-03T14:07:18.696Z,1.00
2022-10-03T14:10:13.045Z,1.00
2022-10-03T14:12:56.148Z,1.00
2022-10-03T14:15:48.999Z,1.00
2022-10-03T14:18:35.896Z,1.00
2022-10-03T14:21:28.733Z,1.00
2022-10-03T14:24:06.213Z,1.00
2022-10-03T14:26:41.091Z,1.00
2022-10-03T14:29:21.550Z,1.00
2022-10-03T14:31:58.707Z,1.00
2022-10-03T14:34:44.948Z,1.00
2022-10-03T14:37:25.076Z,1.00
2022-10-03T14:40:06.277Z,1.00
2022-10-03T14:42:51.386Z,1.00
2022-10-03T14:45:26.465Z,1.00
2022-10-03T14:48:00.137Z,1.00
2022-10-03T14:50:34.357Z,1.00
2022-10-03T14:53:08.151Z,1.00
2022-10-03T14:55:46.680Z,1.00
2022-10-03T14:58:22.846Z,1.00
2022-10-03T15:00:58.815Z,1.00
2022-10-03T15:03:33.998Z,1.00
2022-10-03T15:06:34.422Z,1.00
2022-10-03T15:09:07.527Z,1.00
2022-10-03T15:11:39.722Z,1.00
2022-10-03T15:14:12.808Z,1.00
2022-10-03T15:16:49.072Z,1.00
2022-10-03T15:19:23.011Z,1.00
2022-10-03T15:21:56.512Z,1.00
2022-10-03T15:24:31.731Z,1.00
2022-10-03T15:27:06.394Z,1.00
2022-10-03T15:29:37.509Z,1.00
2022-10-03T15:32:10.280Z,1.00
2022-10-03T15:34:48.568Z,1.00
2022-10-03T15:37:24.935Z,1.00
2022-10-03T15:39:57.096Z,1.00
2022-10-03T15:42:32.983Z,1.00
2022-10-03T15:45:06.485Z,1.00
2022-10-03T15:47:40.099Z,1.00
2022-10-03T15:50:19.775Z,1.00
2022-10-03T15:53:01.456Z,1.00
2022-10-03T15:55:42.394Z,1.00
2022-10-03T15:58:19.050Z,1.00
2022-10-03T16:00:56.422Z,1.00
2022-10-03T16:03:32.618Z,1.00
2022-10-03T16:06:10.059Z,1.00
2022-10-03T16:08:53.057Z,1.00
2022-10-03T16:11:26.470Z,1.00
2022-10-03T16:14:13.406Z,1.00
2022-10-03T16:16:49.547Z,1.00
2022-10-03T16:19:30.276Z,1.00
2022-10-03T16:22:13.211Z,1.00
2022-10-03T16:24:52.239Z,1.00
2022-10-03T16:27:25.959Z,1.00
2022-10-03T16:30:00.614Z,1.00
2022-10-03T16:32:33.802Z,1.00
2022-10-03T16:35:05.331Z,1.00
2022-10-03T16:37:41.855Z,1.00
2022-10-03T16:40:24.619Z,1.00
2022-10-03T16:42:58.068Z,1.00
2022-10-03T16:45:32.103Z,1.00
2022-10-03T16:48:18.102Z,1.00
2022-10-03T16:50:52.588Z,1.00
2022-10-03T16:53:24.346Z,1.00
2022-10-03T16:56:02.127Z,1.00
2022-10-03T16:58:33.847Z,1.00
2022-10-03T17:04:02.868Z,1.00
2022-10-03T17:06:40.756Z,1.00
2022-10-03T17:09:27.985Z,1.00
2022-10-03T17:12:02.651Z,1.00
2022-10-03T17:14:39.321Z,1.00
2022-10-03T17:17:19.116Z,1.00
2022-10-03T17:19:53.658Z,1.00
2022-10-03T17:22:27.274Z,1.00
2022-10-03T17:25:05.721Z,1.00
2022-10-03T17:27:41.480Z,1.00
2022-10-03T17:30:23.706Z,1.00
2022-10-03T17:32:59.855Z,1.00
2022-10-03T17:35:42.581Z,1.00
2022-10-03T17:41:23.687Z,1.00
2022-10-03T17:44:12.121Z,1.80
2022-10-03T17:46:45.887Z,1.70
2022-10-03T17:49:25.254Z,4.50
2022-10-03T17:51:57.729Z,3.40
2022-10-03T17:54:31.502Z,5.50
2022-10-03T17:57:07.146Z,4.10
2022-10-03T17:59:50.609Z,5.90
2022-10-03T18:02:26.753Z,5.80
2022-10-03T18:05:02.991Z,6.20
2022-10-03T18:07:33.522Z,8.90
2022-10-03T18:10:03.775Z,9.50
2022-10-03T18:12:38.498Z,12.00
2022-10-03T18:15:53.144Z,11.00
2022-10-03T18:18:48.089Z,12.00
2022-10-03T18:21:27.610Z,13.50
2022-10-03T18:24:18.018Z,13.70
2022-10-03T18:26:54.353Z,13.70
2022-10-03T18:29:31.783Z,16.10
2022-10-03T18:32:07.345Z,17.50
2022-10-03T18:34:47.857Z,18.70
2022-10-03T18:37:55.641Z,18.80
2022-10-03T18:40:31.416Z,20.50
2022-10-03T18:43:02.242Z,21.40
2022-10-03T18:45:34.636Z,21.10
2022-10-03T18:48:12.673Z,23.00
2022-10-03T18:51:00.235Z,24.40
2022-10-03T18:53:37.981Z,25.80
2022-10-03T18:56:13.926Z,27.20
2022-10-03T18:58:48.439Z,26.90
2022-10-03T19:01:20.409Z,27.90
2022-10-03T19:03:55.686Z,28.30
2022-10-03T19:06:32.047Z,29.20
2022-10-03T19:09:08.695Z,27.60
2022-10-03T19:11:46.056Z,27.80
2022-10-03T19:14:19.902Z,28.40
2022-10-03T19:17:18.197Z,29.30
2022-10-03T19:19:58.820Z,30.90
2022-10-03T19:22:33.734Z,31.10
2022-10-03T19:25:05.265Z,30.50
2022-10-03T19:27:52.310Z,31.20
2022-10-03T19:30:24.744Z,31.50
2022-10-03T19:32:59.747Z,32.60
2022-10-03T19:35:31.144Z,33.00
2022-10-03T19:38:06.681Z,34.40
2022-10-03T19:40:46.530Z,34.80
2022-10-03T19:43:41.911Z,34.60
2022-10-03T19:46:28.507Z,35.10
2022-10-03T19:49:21.372Z,35.90
2022-10-03T19:51:51.682Z,36.90
2022-10-03T19:54:34.050Z,37.70
2022-10-03T19:57:05.769Z,39.00
2022-10-03T19:59:53.705Z,39.60
2022-10-03T20:02:25.353Z,39.40
2022-10-03T20:05:24.526Z,40.00
2022-10-03T20:08:02.372Z,41.20
2022-10-03T20:10:48.608Z,40.30
2022-10-03T20:13:18.526Z,40.00
2022-10-03T20:15:53.033Z,40.40
2022-10-03T20:18:28.420Z,41.20
2022-10-03T20:21:00.618Z,41.10
2022-10-03T20:23:35.885Z,41.20
2022-10-03T20:26:10.718Z,41.80
2022-10-03T20:28:55.714Z,42.60
2022-10-03T20:31:31.152Z,43.70
2022-10-03T20:34:04.181Z,44.10
2022-10-03T20:36:39.506Z,44.10
2022-10-03T20:39:16.380Z,44.80
2022-10-03T20:42:03.077Z,45.20
2022-10-03T20:44:51.809Z,45.40
2022-10-03T20:47:45.061Z,45.70
2022-10-03T20:50:25.058Z,45.90
2022-10-03T20:52:57.014Z,46.20
2022-10-03T20:55:29.800Z,46.30
2022-10-03T20:58:23.069Z,46.10
2022-10-03T21:00:59.567Z,46.10
2022-10-03T21:03:40.338Z,45.50
2022-10-03T21:06:22.325Z,46.80
2022-10-03T21:08:52.627Z,47.80
2022-10-03T21:11:25.131Z,48.10
2022-10-03T21:13:59.369Z,47.90
2022-10-03T21:16:31.196Z,48.20
2022-10-03T21:19:05.776Z,48.70
2022-10-03T21:21:42.225Z,49.50
2022-10-03T21:24:18.346Z,49.70
2022-10-03T21:26:54.935Z,49.70
2022-10-03T21:29:31.109Z,49.20
2022-10-03T21:32:14.396Z,49.10
2022-10-03T21:34:55.421Z,48.80
2022-10-03T21:37:30.731Z,49.20
2022-10-03T21:40:12.115Z,49.20
2022-10-03T21:42:54.427Z,49.40
2022-10-03T21:45:31.721Z,49.00
2022-10-03T21:48:07.781Z,49.60
2022-10-03T21:50:49.024Z,49.60
2022-10-03T21:53:22.142Z,49.90
2022-10-03T21:56:14.994Z,49.80
2022-10-03T21:59:02.441Z,50.70
2022-10-03T22:01:40.577Z,51.20
2022-10-03T22:04:17.988Z,51.30
2022-10-03T22:06:57.852Z,51.40
2022-10-03T22:09:27.704Z,51.60
2022-10-03T22:12:02.036Z,51.60
2022-10-03T22:14:45.054Z,51.20
2022-10-03T22:17:24.322Z,51.30
2022-10-03T22:19:57.000Z,51.60
2022-10-03T22:22:42.337Z,52.60
2022-10-03T22:25:23.590Z,53.50
2022-10-03T22:28:02.918Z,53.50
2022-10-03T22:30:35.007Z,53.60
2022-10-03T22:33:15.692Z,53.90
2022-10-03T22:35:53.781Z,53.70
2022-10-03T22:38:29.350Z,53.60
2022-10-03T22:41:03.777Z,54.10
2022-10-03T22:43:37.234Z,54.30
2022-10-03T22:46:08.942Z,54.20
2022-10-03T22:48:45.505Z,54.50
2022-10-03T22:51:17.992Z,54.50
2022-10-03T22:53:57.038Z,54.80
2022-10-03T22:56:42.638Z,54.70
2022-10-03T22:59:16.070Z,54.30
2022-10-03T23:01:48.587Z,54.30
2022-10-03T23:04:30.135Z,54.20
2022-10-03T23:07:28.887Z,54.80
2022-10-03T23:10:14.657Z,55.00
2022-10-03T23:12:48.465Z,55.50
2022-10-03T23:15:21.611Z,56.00
2022-10-03T23:18:10.286Z,56.00
2022-10-03T23:21:01.015Z,56.30
2022-10-03T23:23:40.640Z,55.90
2022-10-03T23:26:36.253Z,56.10
2022-10-03T23:29:09.136Z,56.20
2022-10-03T23:32:00.051Z,56.20
2022-10-03T23:34:49.090Z,56.50
2022-10-03T23:37:46.486Z,56.60
2022-10-03T23:40:38.648Z,56.80
2022-10-03T23:43:28.133Z,56.90
2022-10-03T23:46:02.777Z,57.00
2022-10-03T23:48:41.769Z,58.20
2022-10-03T23:51:16.715Z,58.00
2022-10-03T23:53:51.407Z,58.40
2022-10-03T23:56:35.958Z,58.50
2022-10-03T23:59:23.248Z,58.50
